sensor_id;sensor_type;location;lat;lon;timestamp;pressure;altitude;pressure_sealevel;temperature;humidity
85798;BME280;76244;53.434;14.484;2024-02-21T00:01:00;101833.70;;;8.77;74.26
85798;BME280;76244;53.434;14.484;2024-02-21T00:03:47;101831.36;;;8.75;74.53
85798;BME280;76244;53.434;14.484;2024-02-21T00:06:20;101826.08;;;8.74;74.63
85798;BME280;76244;53.434;14.484;2024-02-21T00:08:52;101821.34;;;8.75;74.50
85798;BME280;76244;53.434;14.484;2024-02-21T00:11:24;101819.98;;;8.76;74.55
85798;BME280;76244;53.434;14.484;2024-02-21T00:13:57;101818.62;;;8.79;74.57
85798;BME280;76244;53.434;14.484;2024-02-21T00:16:29;101815.66;;;8.79;74.61
85798;BME280;76244;53.434;14.484;2024-02-21T00:19:02;101812.67;;;8.79;74.64
85798;BME280;76244;53.434;14.484;2024-02-21T00:21:34;101808.92;;;8.77;74.66
85798;BME280;76244;53.434;14.484;2024-02-21T00:24:07;101806.07;;;8.75;74.80
85798;BME280;76244;53.434;14.484;2024-02-21T00:26:39;101800.21;;;8.72;74.91
85798;BME280;76244;53.434;14.484;2024-02-21T00:29:12;101797.15;;;8.69;74.96
85798;BME280;76244;53.434;14.484;2024-02-21T00:31:44;101795.69;;;8.66;74.77
85798;BME280;76244;53.434;14.484;2024-02-21T00:34:17;101799.50;;;8.64;74.88
85798;BME280;76244;53.434;14.484;2024-02-21T00:36:50;101802.61;;;8.63;75.09
85798;BME280;76244;53.434;14.484;2024-02-21T00:39:22;101801.73;;;8.62;75.21
85798;BME280;76244;53.434;14.484;2024-02-21T00:41:54;101798.77;;;8.63;75.07
85798;BME280;76244;53.434;14.484;2024-02-21T00:44:27;101793.65;;;8.62;75.21
85798;BME280;76244;53.434;14.484;2024-02-21T00:46:59;101785.41;;;8.63;75.24
85798;BME280;76244;53.434;14.484;2024-02-21T00:49:32;101786.61;;;8.62;75.13
85798;BME280;76244;53.434;14.484;2024-02-21T00:52:04;101775.86;;;8.60;75.18
85798;BME280;76244;53.434;14.484;2024-02-21T00:54:37;101771.41;;;8.57;75.43
85798;BME280;76244;53.434;14.484;2024-02-21T00:57:23;101766.31;;;8.57;75.16
85798;BME280;76244;53.434;14.484;2024-02-21T00:59:55;101758.23;;;8.56;75.22
85798;BME280;76244;53.434;14.484;2024-02-21T01:02:27;101757.71;;;8.57;75.20
85798;BME280;76244;53.434;14.484;2024-02-21T01:05:03;101750.19;;;8.58;75.41
85798;BME280;76244;53.434;14.484;2024-02-21T01:07:36;101749.47;;;8.57;75.30
85798;BME280;76244;53.434;14.484;2024-02-21T01:10:10;101750.67;;;8.56;75.48
85798;BME280;76244;53.434;14.484;2024-02-21T01:12:42;101746.79;;;8.55;75.36
85798;BME280;76244;53.434;14.484;2024-02-21T01:15:15;101747.30;;;8.55;75.23
85798;BME280;76244;53.434;14.484;2024-02-21T01:17:47;101745.48;;;8.52;75.42
85798;BME280;76244;53.434;14.484;2024-02-21T01:20:21;101740.71;;;8.51;75.48
85798;BME280;76244;53.434;14.484;2024-02-21T01:22:53;101738.62;;;8.52;75.44
85798;BME280;76244;53.434;14.484;2024-02-21T01:25:26;101732.35;;;8.53;75.50
85798;BME280;76244;53.434;14.484;2024-02-21T01:27:58;101728.65;;;8.53;75.42
85798;BME280;76244;53.434;14.484;2024-02-21T01:30:30;101722.33;;;8.53;75.33
85798;BME280;76244;53.434;14.484;2024-02-21T01:33:03;101721.83;;;8.54;75.30
85798;BME280;76244;53.434;14.484;2024-02-21T01:35:37;101718.80;;;8.52;75.31
85798;BME280;76244;53.434;14.484;2024-02-21T01:38:10;101718.26;;;8.51;75.31
85798;BME280;76244;53.434;14.484;2024-02-21T01:40:43;101717.70;;;8.50;75.20
85798;BME280;76244;53.434;14.484;2024-02-21T01:43:20;101714.34;;;8.49;75.36
85798;BME280;76244;53.434;14.484;2024-02-21T01:45:55;101711.38;;;8.49;75.26
85798;BME280;76244;53.434;14.484;2024-02-21T01:48:28;101711.86;;;8.48;75.07
85798;BME280;76244;53.434;14.484;2024-02-21T01:51:00;101708.92;;;8.50;75.11
85798;BME280;76244;53.434;14.484;2024-02-21T01:53:37;101705.95;;;8.51;75.18
85798;BME280;76244;53.434;14.484;2024-02-21T01:56:13;101707.89;;;8.51;74.97
85798;BME280;76244;53.434;14.484;2024-02-21T01:58:47;101700.98;;;8.48;74.93
85798;BME280;76244;53.434;14.484;2024-02-21T02:01:20;101701.64;;;8.46;74.84
85798;BME280;76244;53.434;14.484;2024-02-21T02:03:53;101692.77;;;8.43;75.30
85798;BME280;76244;53.434;14.484;2024-02-21T02:06:27;101692.55;;;8.41;75.44
85798;BME280;76244;53.434;14.484;2024-02-21T02:08:59;101683.50;;;8.38;75.31
85798;BME280;76244;53.434;14.484;2024-02-21T02:11:33;101681.16;;;8.35;75.21
85798;BME280;76244;53.434;14.484;2024-02-21T02:14:06;101682.94;;;8.36;75.39
85798;BME280;76244;53.434;14.484;2024-02-21T02:16:40;101677.73;;;8.38;75.37
85798;BME280;76244;53.434;14.484;2024-02-21T02:19:12;101672.40;;;8.36;75.26
85798;BME280;76244;53.434;14.484;2024-02-21T02:21:52;101674.89;;;8.37;75.34
85798;BME280;76244;53.434;14.484;2024-02-21T02:24:27;101668.55;;;8.37;75.42
85798;BME280;76244;53.434;14.484;2024-02-21T02:27:02;101660.69;;;8.38;75.72
85798;BME280;76244;53.434;14.484;2024-02-21T02:29:35;101660.23;;;8.39;75.64
85798;BME280;76244;53.434;14.484;2024-02-21T02:32:07;101657.04;;;8.38;75.74
85798;BME280;76244;53.434;14.484;2024-02-21T02:34:40;101654.78;;;8.39;75.54
85798;BME280;76244;53.434;14.484;2024-02-21T02:37:12;101649.27;;;8.37;75.60
85798;BME280;76244;53.434;14.484;2024-02-21T02:39:45;101644.33;;;8.36;75.76
85798;BME280;76244;53.434;14.484;2024-02-21T02:42:17;101640.16;;;8.38;75.76
85798;BME280;76244;53.434;14.484;2024-02-21T02:44:49;101642.33;;;8.39;75.94
85798;BME280;76244;53.434;14.484;2024-02-21T02:47:21;101639.86;;;8.40;75.84
85798;BME280;76244;53.434;14.484;2024-02-21T02:49:54;101635.60;;;8.38;75.88
85798;BME280;76244;53.434;14.484;2024-02-21T02:52:26;101632.02;;;8.35;75.97
85798;BME280;76244;53.434;14.484;2024-02-21T02:54:59;101628.80;;;8.32;76.03
85798;BME280;76244;53.434;14.484;2024-02-21T02:57:33;101625.30;;;8.33;76.04
85798;BME280;76244;53.434;14.484;2024-02-21T03:00:07;101620.26;;;8.35;76.04
85798;BME280;76244;53.434;14.484;2024-02-21T03:02:42;101616.98;;;8.38;76.21
85798;BME280;76244;53.434;14.484;2024-02-21T03:05:16;101611.97;;;8.39;76.37
85798;BME280;76244;53.434;14.484;2024-02-21T03:07:50;101610.20;;;8.39;76.22
85798;BME280;76244;53.434;14.484;2024-02-21T03:10:22;101608.77;;;8.38;76.26
85798;BME280;76244;53.434;14.484;2024-02-21T03:12:55;101601.16;;;8.37;76.38
85798;BME280;76244;53.434;14.484;2024-02-21T03:15:27;101592.37;;;8.36;76.64
85798;BME280;76244;53.434;14.484;2024-02-21T03:17:59;101588.50;;;8.35;76.48
85798;BME280;76244;53.434;14.484;2024-02-21T03:20:32;101585.66;;;8.34;76.55
85798;BME280;76244;53.434;14.484;2024-02-21T03:23:04;101587.04;;;8.32;76.82
85798;BME280;76244;53.434;14.484;2024-02-21T03:25:37;101587.21;;;8.32;77.01
85798;BME280;76244;53.434;14.484;2024-02-21T03:28:10;101587.22;;;8.33;76.87
85798;BME280;76244;53.434;14.484;2024-02-21T03:30:42;101579.86;;;8.33;77.01
85798;BME280;76244;53.434;14.484;2024-02-21T03:33:14;101577.17;;;8.31;77.12
85798;BME280;76244;53.434;14.484;2024-02-21T03:35:47;101576.77;;;8.28;76.89
85798;BME280;76244;53.434;14.484;2024-02-21T03:38:20;101572.14;;;8.26;77.13
85798;BME280;76244;53.434;14.484;2024-02-21T03:40:52;101566.33;;;8.24;77.28
85798;BME280;76244;53.434;14.484;2024-02-21T03:43:25;101560.20;;;8.25;77.31
85798;BME280;76244;53.434;14.484;2024-02-21T03:45:57;101558.30;;;8.26;77.21
85798;BME280;76244;53.434;14.484;2024-02-21T03:48:30;101554.27;;;8.26;77.31
85798;BME280;76244;53.434;14.484;2024-02-21T03:51:02;101552.67;;;8.26;77.41
85798;BME280;76244;53.434;14.484;2024-02-21T03:53:35;101551.80;;;8.26;77.50
85798;BME280;76244;53.434;14.484;2024-02-21T03:56:08;101550.04;;;8.26;77.40
85798;BME280;76244;53.434;14.484;2024-02-21T03:58:40;101538.21;;;8.22;77.51
85798;BME280;76244;53.434;14.484;2024-02-21T04:01:14;101535.93;;;8.23;77.46
85798;BME280;76244;53.434;14.484;2024-02-21T04:03:47;101529.11;;;8.24;77.31
85798;BME280;76244;53.434;14.484;2024-02-21T04:06:19;101529.67;;;8.25;77.53
85798;BME280;76244;53.434;14.484;2024-02-21T04:08:52;101525.29;;;8.25;77.56
85798;BME280;76244;53.434;14.484;2024-02-21T04:11:24;101522.85;;;8.26;77.53
85798;BME280;76244;53.434;14.484;2024-02-21T04:13:56;101518.64;;;8.26;77.58
85798;BME280;76244;53.434;14.484;2024-02-21T04:16:29;101510.68;;;8.24;77.73
85798;BME280;76244;53.434;14.484;2024-02-21T04:19:02;101507.30;;;8.21;77.66
85798;BME280;76244;53.434;14.484;2024-02-21T04:21:34;101505.55;;;8.21;77.88
85798;BME280;76244;53.434;14.484;2024-02-21T04:24:07;101504.76;;;8.25;77.71
85798;BME280;76244;53.434;14.484;2024-02-21T04:26:39;101500.23;;;8.27;77.77
85798;BME280;76244;53.434;14.484;2024-02-21T04:29:12;101488.52;;;8.28;77.84
85798;BME280;76244;53.434;14.484;2024-02-21T04:31:44;101491.61;;;8.26;78.01
85798;BME280;76244;53.434;14.484;2024-02-21T04:34:17;101485.39;;;8.23;78.04
85798;BME280;76244;53.434;14.484;2024-02-21T04:36:50;101487.77;;;8.19;78.05
85798;BME280;76244;53.434;14.484;2024-02-21T04:39:22;101486.83;;;8.15;77.97
85798;BME280;76244;53.434;14.484;2024-02-21T04:41:54;101487.89;;;8.16;78.26
85798;BME280;76244;53.434;14.484;2024-02-21T04:44:26;101480.16;;;8.16;78.22
85798;BME280;76244;53.434;14.484;2024-02-21T04:46:59;101480.31;;;8.14;78.28
85798;BME280;76244;53.434;14.484;2024-02-21T04:49:32;101475.40;;;8.14;78.29
85798;BME280;76244;53.434;14.484;2024-02-21T04:52:05;101471.23;;;8.16;78.07
85798;BME280;76244;53.434;14.484;2024-02-21T04:54:38;101467.56;;;8.17;78.40
85798;BME280;76244;53.434;14.484;2024-02-21T04:57:10;101459.89;;;8.19;78.17
85798;BME280;76244;53.434;14.484;2024-02-21T04:59:48;101451.70;;;8.23;78.40
85798;BME280;76244;53.434;14.484;2024-02-21T05:02:20;101441.95;;;8.26;78.28
85798;BME280;76244;53.434;14.484;2024-02-21T05:04:55;101435.52;;;8.29;78.20
85798;BME280;76244;53.434;14.484;2024-02-21T05:07:27;101431.31;;;8.29;78.04
85798;BME280;76244;53.434;14.484;2024-02-21T05:10:00;101443.95;;;8.30;78.03
85798;BME280;76244;53.434;14.484;2024-02-21T05:12:32;101449.38;;;8.28;78.14
85798;BME280;76244;53.434;14.484;2024-02-21T05:15:07;101442.36;;;8.29;78.11
85798;BME280;76244;53.434;14.484;2024-02-21T05:17:39;101441.83;;;8.28;78.23
85798;BME280;76244;53.434;14.484;2024-02-21T05:20:12;101438.52;;;8.30;78.15
85798;BME280;76244;53.434;14.484;2024-02-21T05:22:45;101445.58;;;8.32;78.19
85798;BME280;76244;53.434;14.484;2024-02-21T05:25:17;101443.02;;;8.36;78.11
85798;BME280;76244;53.434;14.484;2024-02-21T05:27:52;101439.70;;;8.37;78.03
85798;BME280;76244;53.434;14.484;2024-02-21T05:30:26;101440.45;;;8.38;78.02
85798;BME280;76244;53.434;14.484;2024-02-21T05:32:59;101444.38;;;8.41;77.98
85798;BME280;76244;53.434;14.484;2024-02-21T05:35:31;101444.73;;;8.41;77.95
85798;BME280;76244;53.434;14.484;2024-02-21T05:38:04;101442.80;;;8.40;78.18
85798;BME280;76244;53.434;14.484;2024-02-21T05:40:44;101441.02;;;8.40;78.17
85798;BME280;76244;53.434;14.484;2024-02-21T05:43:16;101434.72;;;8.40;78.19
85798;BME280;76244;53.434;14.484;2024-02-21T05:45:48;101416.67;;;8.42;78.22
85798;BME280;76244;53.434;14.484;2024-02-21T05:48:21;101410.09;;;8.46;78.10
85798;BME280;76244;53.434;14.484;2024-02-21T05:50:54;101410.34;;;8.50;78.28
85798;BME280;76244;53.434;14.484;2024-02-21T05:53:26;101403.72;;;8.52;78.24
85798;BME280;76244;53.434;14.484;2024-02-21T05:55:59;101409.16;;;8.52;78.25
85798;BME280;76244;53.434;14.484;2024-02-21T05:58:32;101411.11;;;8.54;78.24
85798;BME280;76244;53.434;14.484;2024-02-21T06:01:05;101413.61;;;8.56;78.23
85798;BME280;76244;53.434;14.484;2024-02-21T06:03:38;101415.16;;;8.55;78.21
85798;BME280;76244;53.434;14.484;2024-02-21T06:06:10;101416.55;;;8.54;78.16
85798;BME280;76244;53.434;14.484;2024-02-21T06:08:45;101423.73;;;8.53;78.41
85798;BME280;76244;53.434;14.484;2024-02-21T06:11:17;101429.71;;;8.54;78.29
85798;BME280;76244;53.434;14.484;2024-02-21T06:13:50;101427.63;;;8.55;78.42
85798;BME280;76244;53.434;14.484;2024-02-21T06:16:22;101428.65;;;8.53;78.62
85798;BME280;76244;53.434;14.484;2024-02-21T06:18:55;101416.18;;;8.52;78.52
85798;BME280;76244;53.434;14.484;2024-02-21T06:21:31;101410.92;;;8.53;78.70
85798;BME280;76244;53.434;14.484;2024-02-21T06:24:04;101423.55;;;8.52;78.81
85798;BME280;76244;53.434;14.484;2024-02-21T06:26:37;101413.50;;;8.51;78.75
85798;BME280;76244;53.434;14.484;2024-02-21T06:29:10;101410.55;;;8.52;78.75
85798;BME280;76244;53.434;14.484;2024-02-21T06:31:44;101410.03;;;8.53;78.92
85798;BME280;76244;53.434;14.484;2024-02-21T06:34:18;101406.70;;;8.53;79.01
85798;BME280;76244;53.434;14.484;2024-02-21T06:36:50;101406.02;;;8.55;78.88
85798;BME280;76244;53.434;14.484;2024-02-21T06:39:23;101407.30;;;8.56;78.91
85798;BME280;76244;53.434;14.484;2024-02-21T06:41:56;101405.54;;;8.57;78.98
85798;BME280;76244;53.434;14.484;2024-02-21T06:44:33;101406.10;;;8.58;78.89
85798;BME280;76244;53.434;14.484;2024-02-21T06:47:11;101396.13;;;8.60;78.86
85798;BME280;76244;53.434;14.484;2024-02-21T06:49:43;101398.42;;;8.61;78.99
85798;BME280;76244;53.434;14.484;2024-02-21T06:52:20;101398.73;;;8.59;79.05
85798;BME280;76244;53.434;14.484;2024-02-21T06:54:54;101398.22;;;8.59;79.05
85798;BME280;76244;53.434;14.484;2024-02-21T06:57:28;101398.05;;;8.61;79.23
85798;BME280;76244;53.434;14.484;2024-02-21T07:00:01;101408.21;;;8.59;79.34
85798;BME280;76244;53.434;14.484;2024-02-21T07:02:34;101404.50;;;8.58;79.16
85798;BME280;76244;53.434;14.484;2024-02-21T07:05:08;101395.23;;;8.59;79.52
85798;BME280;76244;53.434;14.484;2024-02-21T07:07:41;101391.55;;;8.60;79.52
85798;BME280;76244;53.434;14.484;2024-02-21T07:10:13;101391.20;;;8.60;79.69
85798;BME280;76244;53.434;14.484;2024-02-21T07:12:46;101389.08;;;8.59;79.66
85798;BME280;76244;53.434;14.484;2024-02-21T07:15:19;101391.38;;;8.60;79.91
85798;BME280;76244;53.434;14.484;2024-02-21T07:17:52;101385.59;;;8.61;80.00
85798;BME280;76244;53.434;14.484;2024-02-21T07:20:24;101385.80;;;8.62;79.86
85798;BME280;76244;53.434;14.484;2024-02-21T07:22:57;101382.46;;;8.63;79.87
85798;BME280;76244;53.434;14.484;2024-02-21T07:25:29;101385.42;;;8.61;79.93
85798;BME280;76244;53.434;14.484;2024-02-21T07:28:02;101383.30;;;8.61;80.03
85798;BME280;76244;53.434;14.484;2024-02-21T07:30:35;101384.02;;;8.61;80.03
85798;BME280;76244;53.434;14.484;2024-02-21T07:33:07;101389.27;;;8.61;80.03
85798;BME280;76244;53.434;14.484;2024-02-21T07:35:40;101391.25;;;8.63;80.05
85798;BME280;76244;53.434;14.484;2024-02-21T07:38:15;101386.39;;;8.66;80.04
85798;BME280;76244;53.434;14.484;2024-02-21T07:40:49;101387.11;;;8.68;80.07
85798;BME280;76244;53.434;14.484;2024-02-21T07:43:21;101386.02;;;8.65;80.11
85798;BME280;76244;53.434;14.484;2024-02-21T07:45:54;101382.10;;;8.62;80.09
85798;BME280;76244;53.434;14.484;2024-02-21T07:48:26;101378.75;;;8.61;80.11
85798;BME280;76244;53.434;14.484;2024-02-21T07:51:00;101375.80;;;8.63;80.24
85798;BME280;76244;53.434;14.484;2024-02-21T07:53:33;101374.45;;;8.66;80.15
85798;BME280;76244;53.434;14.484;2024-02-21T07:56:06;101375.91;;;8.70;80.17
85798;BME280;76244;53.434;14.484;2024-02-21T07:58:39;101375.93;;;8.70;80.00
85798;BME280;76244;53.434;14.484;2024-02-21T08:01:12;101362.58;;;8.70;80.24
85798;BME280;76244;53.434;14.484;2024-02-21T08:03:50;101358.02;;;8.70;80.15
85798;BME280;76244;53.434;14.484;2024-02-21T08:06:22;101354.34;;;8.71;80.18
85798;BME280;76244;53.434;14.484;2024-02-21T08:08:55;101359.45;;;8.72;80.16
85798;BME280;76244;53.434;14.484;2024-02-21T08:11:28;101362.29;;;8.74;80.32
85798;BME280;76244;53.434;14.484;2024-02-21T08:14:00;101357.10;;;8.79;80.20
85798;BME280;76244;53.434;14.484;2024-02-21T08:16:34;101349.59;;;8.80;80.17
85798;BME280;76244;53.434;14.484;2024-02-21T08:19:07;101349.42;;;8.82;80.17
85798;BME280;76244;53.434;14.484;2024-02-21T08:21:39;101345.73;;;8.82;80.16
85798;BME280;76244;53.434;14.484;2024-02-21T08:24:11;101344.56;;;8.85;80.24
85798;BME280;76244;53.434;14.484;2024-02-21T08:26:44;101351.98;;;8.87;80.03
85798;BME280;76244;53.434;14.484;2024-02-21T08:29:17;101342.73;;;8.91;79.85
85798;BME280;76244;53.434;14.484;2024-02-21T08:31:49;101342.27;;;8.95;79.81
85798;BME280;76244;53.434;14.484;2024-02-21T08:34:21;101349.81;;;8.94;79.73
85798;BME280;76244;53.434;14.484;2024-02-21T08:36:54;101338.70;;;8.92;79.77
85798;BME280;76244;53.434;14.484;2024-02-21T08:39:26;101336.23;;;8.91;79.72
85798;BME280;76244;53.434;14.484;2024-02-21T08:42:01;101334.80;;;8.90;79.82
85798;BME280;76244;53.434;14.484;2024-02-21T08:44:33;101336.94;;;8.92;79.65
85798;BME280;76244;53.434;14.484;2024-02-21T08:47:06;101335.56;;;8.94;79.77
85798;BME280;76244;53.434;14.484;2024-02-21T08:49:41;101331.17;;;8.94;79.74
85798;BME280;76244;53.434;14.484;2024-02-21T08:52:13;101336.95;;;8.93;79.85
85798;BME280;76244;53.434;14.484;2024-02-21T08:54:46;101339.95;;;8.93;79.73
85798;BME280;76244;53.434;14.484;2024-02-21T08:57:18;101346.42;;;8.91;79.62
85798;BME280;76244;53.434;14.484;2024-02-21T08:59:51;101347.84;;;8.93;79.66
85798;BME280;76244;53.434;14.484;2024-02-21T09:02:23;101349.07;;;8.93;79.70
85798;BME280;76244;53.434;14.484;2024-02-21T09:04:56;101346.61;;;8.92;79.68
85798;BME280;76244;53.434;14.484;2024-02-21T09:07:28;101346.10;;;8.94;79.68
85798;BME280;76244;53.434;14.484;2024-02-21T09:10:01;101342.79;;;8.95;79.66
85798;BME280;76244;53.434;14.484;2024-02-21T09:12:33;101343.20;;;8.99;79.63
85798;BME280;76244;53.434;14.484;2024-02-21T09:15:08;101336.92;;;9.02;79.72
85798;BME280;76244;53.434;14.484;2024-02-21T09:17:41;101337.70;;;9.08;79.71
85798;BME280;76244;53.434;14.484;2024-02-21T09:20:14;101337.58;;;9.11;79.48
85798;BME280;76244;53.434;14.484;2024-02-21T09:22:48;101332.54;;;9.15;79.42
85798;BME280;76244;53.434;14.484;2024-02-21T09:25:20;101325.55;;;9.18;79.14
85798;BME280;76244;53.434;14.484;2024-02-21T09:27:53;101327.10;;;9.15;79.14
85798;BME280;76244;53.434;14.484;2024-02-21T09:30:26;101321.44;;;9.12;79.33
85798;BME280;76244;53.434;14.484;2024-02-21T09:32:58;101319.88;;;9.14;79.37
85798;BME280;76244;53.434;14.484;2024-02-21T09:35:32;101324.30;;;9.16;79.43
85798;BME280;76244;53.434;14.484;2024-02-21T09:38:06;101327.17;;;9.20;79.36
85798;BME280;76244;53.434;14.484;2024-02-21T09:40:39;101326.31;;;9.21;79.25
85798;BME280;76244;53.434;14.484;2024-02-21T09:43:18;101329.48;;;9.21;79.35
85798;BME280;76244;53.434;14.484;2024-02-21T09:45:55;101334.95;;;9.23;79.33
85798;BME280;76244;53.434;14.484;2024-02-21T09:48:36;101335.15;;;9.25;79.33
85798;BME280;76244;53.434;14.484;2024-02-21T09:51:13;101335.91;;;9.29;79.15
85798;BME280;76244;53.434;14.484;2024-02-21T09:53:47;101342.63;;;9.32;79.09
85798;BME280;76244;53.434;14.484;2024-02-21T09:56:32;101343.89;;;9.34;78.85
85798;BME280;76244;53.434;14.484;2024-02-21T09:59:06;101344.10;;;9.36;79.11
85798;BME280;76244;53.434;14.484;2024-02-21T10:01:39;101340.94;;;9.36;78.98
85798;BME280;76244;53.434;14.484;2024-02-21T10:04:11;101333.03;;;9.37;78.90
85798;BME280;76244;53.434;14.484;2024-02-21T10:06:44;101332.84;;;9.36;78.76
85798;BME280;76244;53.434;14.484;2024-02-21T10:09:24;101337.42;;;9.36;78.75
85798;BME280;76244;53.434;14.484;2024-02-21T10:12:10;101341.98;;;9.36;78.57
85798;BME280;76244;53.434;14.484;2024-02-21T10:14:44;101344.11;;;9.38;78.63
85798;BME280;76244;53.434;14.484;2024-02-21T10:17:18;101350.86;;;9.42;78.61
85798;BME280;76244;53.434;14.484;2024-02-21T10:19:51;101350.34;;;9.43;78.56
85798;BME280;76244;53.434;14.484;2024-02-21T10:22:24;101349.30;;;9.45;78.76
85798;BME280;76244;53.434;14.484;2024-02-21T10:25:08;101348.80;;;9.45;78.49
85798;BME280;76244;53.434;14.484;2024-02-21T10:27:41;101345.30;;;9.48;78.43
85798;BME280;76244;53.434;14.484;2024-02-21T10:30:16;101345.87;;;9.51;78.34
85798;BME280;76244;53.434;14.484;2024-02-21T10:32:52;101342.23;;;9.54;78.23
85798;BME280;76244;53.434;14.484;2024-02-21T10:35:30;101342.41;;;9.56;77.99
85798;BME280;76244;53.434;14.484;2024-02-21T10:38:03;101339.23;;;9.55;78.06
85798;BME280;76244;53.434;14.484;2024-02-21T10:40:37;101338.71;;;9.55;78.10
85798;BME280;76244;53.434;14.484;2024-02-21T10:43:13;101332.23;;;9.56;78.34
85798;BME280;76244;53.434;14.484;2024-02-21T10:45:47;101333.85;;;9.59;78.28
85798;BME280;76244;53.434;14.484;2024-02-21T10:48:27;101331.25;;;9.63;78.10
85798;BME280;76244;53.434;14.484;2024-02-21T10:51:14;101333.94;;;9.66;78.43
85798;BME280;76244;53.434;14.484;2024-02-21T10:53:50;101329.56;;;9.68;78.14
85798;BME280;76244;53.434;14.484;2024-02-21T10:56:30;101328.33;;;9.68;78.01
85798;BME280;76244;53.434;14.484;2024-02-21T10:59:07;101318.80;;;9.65;78.27
85798;BME280;76244;53.434;14.484;2024-02-21T11:01:40;101317.42;;;9.67;78.63
85798;BME280;76244;53.434;14.484;2024-02-21T11:04:13;101309.40;;;9.72;78.45
85798;BME280;76244;53.434;14.484;2024-02-21T11:06:46;101296.42;;;9.76;78.45
85798;BME280;76244;53.434;14.484;2024-02-21T11:09:28;101290.64;;;9.79;78.06
85798;BME280;76244;53.434;14.484;2024-02-21T11:12:02;101297.52;;;9.80;78.06
85798;BME280;76244;53.434;14.484;2024-02-21T11:14:39;101292.25;;;9.81;77.86
85798;BME280;76244;53.434;14.484;2024-02-21T11:17:20;101290.32;;;9.81;77.99
85798;BME280;76244;53.434;14.484;2024-02-21T11:19:57;101280.68;;;9.84;77.99
85798;BME280;76244;53.434;14.484;2024-02-21T11:22:40;101280.76;;;9.91;77.94
85798;BME280;76244;53.434;14.484;2024-02-21T11:25:13;101278.87;;;9.95;77.67
85798;BME280;76244;53.434;14.484;2024-02-21T11:28:01;101272.91;;;9.98;77.51
85798;BME280;76244;53.434;14.484;2024-02-21T11:30:34;101267.11;;;10.00;77.49
85798;BME280;76244;53.434;14.484;2024-02-21T11:33:07;101257.61;;;10.00;76.94
85798;BME280;76244;53.434;14.484;2024-02-21T11:35:40;101247.97;;;10.02;77.16
85798;BME280;76244;53.434;14.484;2024-02-21T11:38:13;101247.45;;;10.04;77.22
85798;BME280;76244;53.434;14.484;2024-02-21T11:40:48;101249.96;;;10.09;77.18
85798;BME280;76244;53.434;14.484;2024-02-21T11:43:21;101250.38;;;10.14;76.84
85798;BME280;76244;53.434;14.484;2024-02-21T11:46:00;101248.81;;;10.17;76.31
85798;BME280;76244;53.434;14.484;2024-02-21T11:48:34;101250.92;;;10.15;76.11
85798;BME280;76244;53.434;14.484;2024-02-21T11:51:07;101246.51;;;10.15;76.23
85798;BME280;76244;53.434;14.484;2024-02-21T11:53:39;101240.36;;;10.17;76.25
85798;BME280;76244;53.434;14.484;2024-02-21T11:56:27;101234.05;;;10.20;76.30
85798;BME280;76244;53.434;14.484;2024-02-21T11:59:01;101232.13;;;10.22;75.82
85798;BME280;76244;53.434;14.484;2024-02-21T12:01:35;101231.50;;;10.27;76.06
85798;BME280;76244;53.434;14.484;2024-02-21T12:04:07;101229.45;;;10.34;75.99
85798;BME280;76244;53.434;14.484;2024-02-21T12:06:40;101229.48;;;10.38;75.95
85798;BME280;76244;53.434;14.484;2024-02-21T12:09:15;101227.92;;;10.42;75.81
85798;BME280;76244;53.434;14.484;2024-02-21T12:11:58;101226.36;;;10.45;75.51
85798;BME280;76244;53.434;14.484;2024-02-21T12:14:32;101227.23;;;10.45;75.26
85798;BME280;76244;53.434;14.484;2024-02-21T12:17:07;101221.59;;;10.42;75.18
85798;BME280;76244;53.434;14.484;2024-02-21T12:19:40;101216.63;;;10.38;74.90
85798;BME280;76244;53.434;14.484;2024-02-21T12:22:17;101211.14;;;10.35;75.11
85798;BME280;76244;53.434;14.484;2024-02-21T12:24:50;101205.36;;;10.36;75.07
85798;BME280;76244;53.434;14.484;2024-02-21T12:27:23;101204.30;;;10.38;75.29
85798;BME280;76244;53.434;14.484;2024-02-21T12:29:56;101199.41;;;10.43;74.95
85798;BME280;76244;53.434;14.484;2024-02-21T12:32:29;101199.96;;;10.46;74.71
85798;BME280;76244;53.434;14.484;2024-02-21T12:35:01;101198.75;;;10.49;74.40
85798;BME280;76244;53.434;14.484;2024-02-21T12:37:35;101200.54;;;10.51;73.82
85798;BME280;76244;53.434;14.484;2024-02-21T12:40:11;101203.00;;;10.50;73.43
85798;BME280;76244;53.434;14.484;2024-02-21T12:42:46;101204.38;;;10.47;73.05
85798;BME280;76244;53.434;14.484;2024-02-21T12:45:19;101198.73;;;10.46;72.48
85798;BME280;76244;53.434;14.484;2024-02-21T12:47:51;101195.73;;;10.43;72.27
85798;BME280;76244;53.434;14.484;2024-02-21T12:50:24;101192.70;;;10.42;72.55
85798;BME280;76244;53.434;14.484;2024-02-21T12:52:56;101187.80;;;10.43;72.75
85798;BME280;76244;53.434;14.484;2024-02-21T12:55:30;101184.84;;;10.47;72.83
85798;BME280;76244;53.434;14.484;2024-02-21T12:58:05;101188.39;;;10.51;71.99
85798;BME280;76244;53.434;14.484;2024-02-21T13:00:37;101179.59;;;10.53;71.89
85798;BME280;76244;53.434;14.484;2024-02-21T13:03:10;101179.25;;;10.56;71.75
85798;BME280;76244;53.434;14.484;2024-02-21T13:05:43;101169.41;;;10.58;71.62
85798;BME280;76244;53.434;14.484;2024-02-21T13:08:16;101168.71;;;10.62;71.34
85798;BME280;76244;53.434;14.484;2024-02-21T13:10:50;101167.33;;;10.65;71.10
85798;BME280;76244;53.434;14.484;2024-02-21T13:13:25;101172.46;;;10.68;71.11
85798;BME280;76244;53.434;14.484;2024-02-21T13:15:58;101167.34;;;10.69;70.37
85798;BME280;76244;53.434;14.484;2024-02-21T13:18:31;101164.52;;;10.69;70.55
85798;BME280;76244;53.434;14.484;2024-02-21T13:21:04;101161.37;;;10.70;70.03